Time;durP1;ratioP1;P1;durP2;ratioP2;P2;SDS_P1;SDS_P2;PMS_P1;PMS_P2;Temp;Humidity;BMP_temperature;BMP_pressure;BME280_temperature;BME280_humidity;BME280_pressure;Samples;Min_cycle;Max_cycle;Signal;HPM_P1;HPM_P2
2022/09/11 00:02:07;;;;;;;5.80;4.82;;;16.20;99.90;;;;;;4924340;28;20038;-84
2022/09/11 00:04:33;;;;;;;6.80;4.53;;;16.10;99.90;;;;;;4953137;28;20141;-84
2022/09/11 00:06:59;;;;;;;6.25;4.38;;;16.10;99.90;;;;;;4993331;28;20069;-84
2022/09/11 00:09:25;;;;;;;7.28;4.97;;;16.10;99.90;;;;;;4942466;28;20122;-84
2022/09/11 00:11:51;;;;;;;7.15;5.22;;;16.10;99.90;;;;;;4957418;28;20062;-84
2022/09/11 00:14:18;;;;;;;7.28;5.05;;;16.00;99.90;;;;;;4943473;28;20047;-84
2022/09/11 00:16:48;;;;;;;5.43;4.90;;;16.00;99.90;;;;;;4947238;28;20160;-85
2022/09/11 00:19:18;;;;;;;5.80;4.70;;;16.00;99.90;;;;;;4957712;28;20100;-85
2022/09/11 00:21:45;;;;;;;7.43;5.65;;;16.00;99.90;;;;;;4958603;28;20039;-84
2022/09/11 00:24:11;;;;;;;5.82;5.18;;;15.90;99.90;;;;;;4975160;28;20045;-84
2022/09/11 00:26:38;;;;;;;6.95;5.65;;;15.50;99.90;;;;;;4958360;28;20084;-84
2022/09/11 00:29:03;;;;;;;8.32;5.25;;;15.60;99.90;;;;;;4943056;28;20048;-83
2022/09/11 00:31:33;;;;;;;5.32;4.57;;;15.20;99.90;;;;;;4956419;28;20039;-84
2022/09/11 00:33:59;;;;;;;6.18;4.85;;;15.90;99.90;;;;;;4958454;28;20051;-84
2022/09/11 00:36:33;;;;;;;6.45;5.00;;;15.80;99.90;;;;;;4942522;28;20050;-84
2022/09/11 00:39:00;;;;;;;6.90;5.03;;;15.80;99.90;;;;;;4942494;28;20043;-84
2022/09/11 00:41:29;;;;;;;6.03;4.88;;;16.60;99.90;;;;;;4974544;28;20053;-83
2022/09/11 00:44:01;;;;;;;5.70;4.57;;;15.70;99.90;;;;;;4957264;28;20050;-84
2022/09/11 00:46:44;;;;;;;5.78;4.40;;;15.70;99.90;;;;;;4959151;28;20093;-84
2022/09/11 00:49:14;;;;;;;7.85;5.10;;;15.70;99.90;;;;;;4956873;28;20057;-84
2022/09/11 00:51:40;;;;;;;6.15;4.72;;;15.70;99.90;;;;;;4959164;28;20130;-84
2022/09/11 00:54:11;;;;;;;6.38;4.63;;;15.60;99.90;;;;;;4958931;28;20046;-84
2022/09/11 00:56:40;;;;;;;8.00;4.65;;;15.70;99.90;;;;;;4958265;28;20050;-84
2022/09/11 00:59:07;;;;;;;5.50;4.47;;;16.50;99.90;;;;;;4947400;28;20046;-84
2022/09/11 01:01:33;;;;;;;5.65;4.50;;;15.60;99.90;;;;;;4947229;28;20050;-85
2022/09/11 01:04:03;;;;;;;5.70;4.20;;;15.60;99.90;;;;;;4959086;28;20062;-84
2022/09/11 01:06:29;;;;;;;5.70;4.35;;;15.60;99.90;;;;;;4942470;28;20152;-84
2022/09/11 01:08:58;;;;;;;6.70;4.57;;;15.50;99.90;;;;;;4963706;28;20050;-84
2022/09/11 01:11:52;;;;;;;6.20;4.57;;;15.50;99.90;;;;;;4942998;28;20437;-85
2022/09/11 01:14:41;;;;;;;6.50;4.50;;;15.40;99.90;;;;;;4947110;28;20046;-84
2022/09/11 01:17:43;;;;;;;5.35;4.20;;;15.40;99.90;;;;;;4975129;28;20046;-84
2022/09/11 01:20:32;;;;;;;5.53;4.05;;;15.40;99.90;;;;;;4958817;28;20445;-84
2022/09/11 01:23:12;;;;;;;4.95;4.07;;;15.40;99.90;;;;;;4945701;28;20070;-85
2022/09/11 01:25:44;;;;;;;7.00;4.70;;;15.30;99.90;;;;;;4974995;28;20599;-85
2022/09/11 01:28:18;;;;;;;6.43;4.55;;;15.30;99.90;;;;;;4973799;28;20129;-83
2022/09/11 01:30:55;;;;;;;8.32;4.18;;;15.20;99.90;;;;;;4946319;28;20138;-84
2022/09/11 01:33:44;;;;;;;5.38;3.80;;;15.70;99.90;;;;;;4956856;28;20046;-84
2022/09/11 01:36:20;;;;;;;6.30;4.40;;;15.20;99.90;;;;;;4980585;28;20050;-84
2022/09/11 01:38:59;;;;;;;5.35;4.13;;;15.20;99.90;;;;;;4990188;28;20137;-85
2022/09/11 01:41:39;;;;;;;7.05;4.90;;;15.20;99.90;;;;;;4941632;28;20050;-84
2022/09/11 01:44:08;;;;;;;5.30;4.10;;;15.10;99.90;;;;;;4946980;28;20444;-84
2022/09/11 01:46:43;;;;;;;6.18;4.88;;;15.00;99.90;;;;;;4974081;28;20050;-84
2022/09/11 01:49:17;;;;;;;6.45;4.55;;;15.00;99.90;;;;;;4943145;28;20046;-84
2022/09/11 01:51:46;;;;;;;6.78;5.22;;;15.00;99.90;;;;;;4974348;28;20476;-84
2022/09/11 01:54:22;;;;;;;5.47;4.65;;;15.00;99.90;;;;;;4959491;28;20404;-83
2022/09/11 01:56:54;;;;;;;6.53;4.25;;;14.90;99.90;;;;;;4958575;28;20050;-84
2022/09/11 01:59:26;;;;;;;6.13;4.88;;;14.90;99.90;;;;;;4958385;28;20042;-84
2022/09/11 02:01:59;;;;;;;10.45;5.65;;;14.90;99.90;;;;;;4973249;28;20117;-84
2022/09/11 02:04:32;;;;;;;8.48;5.68;;;14.90;99.90;;;;;;4941578;28;20073;-84
2022/09/11 02:07:12;;;;;;;6.80;5.60;;;14.90;99.90;;;;;;4957761;28;20482;-84
2022/09/11 02:09:44;;;;;;;6.10;5.10;;;14.50;99.90;;;;;;4958904;28;20078;-84
2022/09/11 02:12:14;;;;;;;7.78;5.10;;;14.80;99.90;;;;;;4946466;28;20963;-84
2022/09/11 02:14:43;;;;;;;5.50;5.00;;;14.80;99.90;;;;;;4957142;28;20053;-84
2022/09/11 02:17:14;;;;;;;6.68;4.70;;;14.70;99.90;;;;;;4963481;28;20121;-84
2022/09/11 02:19:41;;;;;;;5.75;4.88;;;14.20;99.90;;;;;;4976440;28;20047;-84
2022/09/11 02:22:07;;;;;;;5.70;4.35;;;14.70;99.90;;;;;;4951463;28;20085;-84
2022/09/11 02:24:33;;;;;;;5.75;4.32;;;14.70;99.90;;;;;;4963636;28;20074;-84
2022/09/11 02:27:10;;;;;;;7.57;4.88;;;14.60;99.90;;;;;;4948100;28;20552;-83
2022/09/11 02:29:39;;;;;;;5.75;4.85;;;15.60;99.90;;;;;;4951065;28;20046;-84
2022/09/11 02:32:11;;;;;;;6.80;4.82;;;14.50;99.90;;;;;;4993575;28;20046;-85
2022/09/11 02:34:40;;;;;;;5.70;4.50;;;14.70;99.90;;;;;;4974666;28;20062;-84
2022/09/11 02:37:40;;;;;;;5.50;4.35;;;14.60;99.90;;;;;;4949189;28;20110;-85
2022/09/11 02:40:38;;;;;;;4.90;4.22;;;14.60;99.90;;;;;;4976929;28;20073;-84
2022/09/11 02:43:21;;;;;;;7.15;4.60;;;15.00;99.90;;;;;;4960446;28;20073;-84
2022/09/11 02:46:08;;;;;;;6.50;4.38;;;14.30;99.90;;;;;;4976527;28;20046;-84
2022/09/11 02:49:07;;;;;;;5.53;4.03;;;14.60;99.90;;;;;;4959197;28;20090;-85
2022/09/11 02:51:40;;;;;;;5.57;3.78;;;14.50;99.90;;;;;;4962390;28;20042;-85
2022/09/11 02:54:45;;;;;;;5.70;4.25;;;14.50;99.90;;;;;;4959944;28;20046;-84
2022/09/11 02:57:49;;;;;;;5.05;3.88;;;14.50;99.90;;;;;;4992362;28;20051;-83
2022/09/11 03:00:17;;;;;;;4.85;4.03;;;14.50;99.90;;;;;;4950852;28;20061;-85
2022/09/11 03:02:44;;;;;;;6.25;3.90;;;13.60;99.90;;;;;;4960109;28;20042;-84
2022/09/11 03:05:13;;;;;;;4.70;3.85;;;14.40;99.90;;;;;;4975047;28;20066;-85
2022/09/11 03:07:38;;;;;;;5.63;4.10;;;14.40;99.90;;;;;;4927705;28;20050;-84
2022/09/11 03:10:07;;;;;;;5.55;3.80;;;14.40;99.90;;;;;;4961239;28;20114;-85
2022/09/11 03:12:37;;;;;;;5.18;3.88;;;14.40;99.90;;;;;;4959946;28;21584;-83
2022/09/11 03:15:08;;;;;;;6.10;3.88;;;15.10;99.90;;;;;;4959291;28;20567;-84
2022/09/11 03:17:34;;;;;;;5.55;3.65;;;14.30;99.90;;;;;;4975819;28;20049;-84
2022/09/11 03:20:00;;;;;;;4.95;4.00;;;14.30;99.90;;;;;;4958865;28;20602;-83
2022/09/11 03:22:28;;;;;;;4.38;3.50;;;14.30;99.90;;;;;;4944525;28;20045;-84
2022/09/11 03:24:54;;;;;;;5.68;4.13;;;14.20;99.90;;;;;;4975462;28;20046;-84
2022/09/11 03:27:22;;;;;;;4.28;3.85;;;14.30;99.90;;;;;;4958889;28;20049;-84
2022/09/11 03:29:48;;;;;;;6.25;4.18;;;14.20;99.90;;;;;;4976025;28;20401;-84
2022/09/11 03:32:15;;;;;;;5.03;3.85;;;14.20;99.90;;;;;;4959964;28;20039;-83
2022/09/11 03:34:41;;;;;;;4.63;3.90;;;14.20;99.90;;;;;;4979019;28;20539;-84
2022/09/11 03:37:07;;;;;;;5.13;3.75;;;14.20;99.90;;;;;;4949362;28;20061;-83
2022/09/11 03:39:32;;;;;;;5.28;4.13;;;14.20;99.90;;;;;;4943247;28;20097;-83
2022/09/11 03:41:58;;;;;;;5.10;4.15;;;14.20;99.90;;;;;;4947947;28;20073;-84
2022/09/11 03:44:24;;;;;;;5.25;3.80;;;14.20;99.90;;;;;;4944369;28;20046;-84
2022/09/11 03:46:51;;;;;;;4.57;3.50;;;13.60;99.90;;;;;;4975647;28;20074;-84
2022/09/11 03:49:20;;;;;;;5.60;3.95;;;14.20;99.90;;;;;;4959522;28;20556;-84
2022/09/11 03:51:46;;;;;;;4.75;3.92;;;14.20;99.90;;;;;;4973876;28;20120;-84
2022/09/11 03:54:14;;;;;;;5.93;4.03;;;14.20;99.90;;;;;;4974604;28;20147;-83
2022/09/11 03:56:41;;;;;;;4.85;3.67;;;14.40;99.90;;;;;;4948585;28;20508;-84
2022/09/11 03:59:08;;;;;;;4.60;3.70;;;14.10;99.90;;;;;;4943877;28;20069;-84
2022/09/11 04:01:34;;;;;;;6.32;3.95;;;14.10;99.90;;;;;;4958145;28;20047;-84
2022/09/11 04:04:01;;;;;;;4.38;3.42;;;14.00;99.90;;;;;;4947003;28;20149;-84
2022/09/11 04:06:27;;;;;;;4.65;3.63;;;14.10;99.90;;;;;;4976133;28;20069;-85
2022/09/11 04:08:53;;;;;;;5.60;3.65;;;14.00;99.90;;;;;;4957598;28;20046;-84
2022/09/11 04:11:18;;;;;;;4.75;3.97;;;14.00;99.90;;;;;;4958288;28;20053;-84
2022/09/11 04:13:44;;;;;;;5.70;3.75;;;14.00;99.90;;;;;;4990677;28;20042;-84
2022/09/11 04:16:16;;;;;;;4.50;3.50;;;13.90;99.90;;;;;;4947995;28;20038;-84
2022/09/11 04:18:44;;;;;;;5.18;4.20;;;13.90;99.90;;;;;;4959555;28;20109;-84
2022/09/11 04:21:12;;;;;;;5.82;4.10;;;13.90;99.90;;;;;;4948496;28;20042;-84
2022/09/11 04:23:40;;;;;;;6.40;3.83;;;13.90;99.90;;;;;;4947140;28;20054;-84
2022/09/11 04:26:14;;;;;;;5.28;3.85;;;13.90;99.90;;;;;;4974720;28;20413;-83
2022/09/11 04:28:40;;;;;;;4.90;3.85;;;13.90;99.90;;;;;;4958843;28;20054;-84
2022/09/11 04:31:06;;;;;;;4.25;3.40;;;13.90;99.90;;;;;;4940752;28;20294;-85
2022/09/11 04:33:34;;;;;;;5.85;4.00;;;13.90;99.90;;;;;;4973938;28;20078;-84
2022/09/11 04:36:17;;;;;;;5.20;3.88;;;13.80;99.90;;;;;;4974627;28;20049;-85
2022/09/11 04:38:45;;;;;;;5.47;4.15;;;13.80;99.90;;;;;;4959058;28;21914;-84
2022/09/11 04:41:11;;;;;;;4.50;3.60;;;13.80;99.90;;;;;;4958651;28;20137;-85
2022/09/11 04:43:41;;;;;;;6.25;3.97;;;13.70;99.90;;;;;;4961145;28;20050;-84
2022/09/11 04:46:14;;;;;;;4.53;3.60;;;13.80;99.90;;;;;;4946403;28;20222;-84
2022/09/11 04:48:44;;;;;;;4.93;3.80;;;13.80;99.90;;;;;;4952045;28;20054;-84
2022/09/11 04:51:11;;;;;;;4.82;4.00;;;13.80;99.90;;;;;;4968529;28;20073;-85
2022/09/11 04:54:18;;;;;;;4.18;3.78;;;13.80;99.90;;;;;;4956325;28;20046;-89
2022/09/11 05:00:09;;;;;;;4.63;3.83;;;12.60;99.90;;;;;;4963488;28;20024;-89
2022/09/11 05:03:00;;;;;;;4.60;3.53;;;13.10;99.90;;;;;;4982510;28;20501;-89
2022/09/11 05:05:39;;;;;;;4.65;3.30;;;13.70;99.90;;;;;;4965810;28;20054;-87
2022/09/11 05:08:15;;;;;;;;;;;;;;;;;;;;;
2022/09/11 05:17:10;;;;;;;5.55;3.60;;;13.90;99.90;;;;;;4982118;28;20182;-89
2022/09/11 05:20:04;;;;;;;5.82;4.60;;;13.60;99.90;;;;;;4956480;28;20411;-88
2022/09/11 05:22:40;;;;;;;4.30;3.70;;;13.70;99.90;;;;;;4942538;28;20129;-88
2022/09/11 05:25:19;;;;;;;;;;;;;;;;;;;;;
2022/09/11 05:28:18;;;;;;;;;;;;;;;;;;;;;
2022/09/11 05:30:57;;;;;;;5.32;3.72;;;13.80;99.90;;;;;;4960373;28;20058;-88
2022/09/11 05:33:59;;;;;;;;;;;;;;;;;;;;;
2022/09/11 05:36:52;;;;;;;;;;;;;;;;;;;;;
2022/09/11 05:39:38;;;;;;;5.55;3.65;;;13.70;99.90;;;;;;4979147;28;20053;-90
2022/09/11 05:42:06;;;;;;;5.22;3.83;;;13.60;99.90;;;;;;4965330;28;20505;-89
2022/09/11 05:45:06;;;;;;;5.07;3.28;;;13.60;99.90;;;;;;4944056;28;20057;-89
2022/09/11 05:47:36;;;;;;;6.13;4.00;;;13.70;99.90;;;;;;4963087;28;20137;-88
2022/09/11 05:50:02;;;;;;;6.65;3.90;;;13.60;99.90;;;;;;4950655;28;20058;-89
2022/09/11 05:52:34;;;;;;;5.35;3.97;;;13.70;99.90;;;;;;4956292;28;20045;-88
2022/09/11 05:55:10;;;;;;;4.85;3.65;;;13.70;99.90;;;;;;4956235;28;20050;-89
2022/09/11 05:57:38;;;;;;;4.95;4.10;;;13.70;99.90;;;;;;4964340;28;20053;-83
2022/09/11 06:00:05;;;;;;;8.07;5.18;;;13.70;99.90;;;;;;4976017;28;20050;-85
2022/09/11 06:02:31;;;;;;;7.20;4.78;;;13.80;99.90;;;;;;4992806;28;20164;-84
2022/09/11 06:04:56;;;;;;;7.43;4.88;;;13.90;99.90;;;;;;4962397;28;20058;-84
2022/09/11 06:07:22;;;;;;;7.18;4.10;;;13.90;99.90;;;;;;4959688;28;20053;-84
2022/09/11 06:09:48;;;;;;;5.68;4.13;;;13.90;99.90;;;;;;4946487;28;20141;-84
2022/09/11 06:12:14;;;;;;;6.70;4.20;;;13.90;99.90;;;;;;4964596;28;20482;-80
2022/09/11 06:14:41;;;;;;;7.40;4.03;;;13.90;99.90;;;;;;4945152;28;20389;-83
2022/09/11 06:17:10;;;;;;;6.25;4.07;;;13.90;99.90;;;;;;4950406;28;20053;-84
2022/09/11 06:19:36;;;;;;;6.30;4.00;;;13.90;99.90;;;;;;4963826;28;20057;-85
2022/09/11 06:22:01;;;;;;;6.15;3.90;;;13.90;99.90;;;;;;4947790;28;20058;-86
2022/09/11 06:24:30;;;;;;;5.47;3.70;;;13.90;99.90;;;;;;4982136;28;20054;-85
2022/09/11 06:26:56;;;;;;;4.65;3.30;;;13.40;99.90;;;;;;4952905;28;20050;-86
2022/09/11 06:29:22;;;;;;;6.32;3.92;;;14.00;99.90;;;;;;4963445;28;20101;-84
2022/09/11 06:31:50;;;;;;;6.72;3.85;;;14.00;99.90;;;;;;4964102;28;20126;-83
2022/09/11 06:34:18;;;;;;;7.18;4.10;;;14.10;99.90;;;;;;4967302;28;20050;-84
2022/09/11 06:36:44;;;;;;;4.95;3.65;;;14.30;99.90;;;;;;4977629;28;20134;-85
2022/09/11 06:39:10;;;;;;;5.68;3.67;;;14.20;99.90;;;;;;4951976;28;20097;-86
2022/09/11 06:41:36;;;;;;;6.68;3.88;;;14.20;99.90;;;;;;4977511;28;20455;-85
2022/09/11 06:44:04;;;;;;;5.47;3.95;;;14.30;99.90;;;;;;4976331;28;20050;-87
2022/09/11 06:46:30;;;;;;;5.88;4.30;;;13.80;99.90;;;;;;4950291;28;20050;-84
2022/09/11 06:48:56;;;;;;;6.13;5.15;;;14.50;99.90;;;;;;4947468;28;20076;-85
2022/09/11 06:51:22;;;;;;;5.13;3.90;;;14.60;99.90;;;;;;4945294;28;20077;-86
2022/09/11 06:53:54;;;;;;;6.25;4.13;;;14.80;99.90;;;;;;4976574;28;20045;-86
2022/09/11 06:56:21;;;;;;;6.55;5.53;;;14.90;99.90;;;;;;4976049;28;20121;-85
2022/09/11 06:58:46;;;;;;;8.10;6.03;;;15.00;99.90;;;;;;4961863;28;20097;-86
2022/09/11 07:01:17;;;;;;;7.72;6.47;;;15.20;99.90;;;;;;4969130;28;20049;-84
2022/09/11 07:03:46;;;;;;;7.50;6.07;;;15.40;99.90;;;;;;4959762;28;20051;-87
2022/09/11 07:06:16;;;;;;;7.22;6.53;;;15.50;99.90;;;;;;4962332;28;20125;-85
2022/09/11 07:08:42;;;;;;;8.48;7.35;;;15.80;99.90;;;;;;4946020;28;20065;-85
2022/09/11 07:11:16;;;;;;;7.13;6.43;;;15.90;99.90;;;;;;4947154;28;20042;-85
2022/09/11 07:13:43;;;;;;;9.00;6.57;;;16.10;99.90;;;;;;4958125;28;20046;-85
2022/09/11 07:16:11;;;;;;;7.50;4.70;;;16.30;99.90;;;;;;4954469;28;20726;-86
2022/09/11 07:18:42;;;;;;;6.95;5.00;;;16.50;99.90;;;;;;4969828;28;20080;-87
2022/09/11 07:21:22;;;;;;;5.07;4.50;;;17.20;99.90;;;;;;4981223;28;20378;-87
2022/09/11 07:23:53;;;;;;;4.50;3.83;;;16.80;99.90;;;;;;4966271;28;20408;-86
2022/09/11 07:26:20;;;;;;;4.93;4.03;;;17.00;99.90;;;;;;4966326;28;20259;-87
2022/09/11 07:28:50;;;;;;;5.38;3.85;;;17.20;99.90;;;;;;4956041;28;20042;-87
2022/09/11 07:31:23;;;;;;;5.35;3.13;;;17.30;99.90;;;;;;4966266;28;20061;-87
2022/09/11 07:33:54;;;;;;;4.43;3.10;;;17.50;99.90;;;;;;4984990;28;20421;-87
2022/09/11 07:36:31;;;;;;;6.00;2.97;;;17.80;99.90;;;;;;4956987;28;20145;-88
2022/09/11 07:38:57;;;;;;;3.40;3.00;;;18.00;99.90;;;;;;4950754;28;20054;-86
2022/09/11 07:41:25;;;;;;;3.53;2.83;;;18.10;99.90;;;;;;4951904;28;20047;-88
2022/09/11 07:43:53;;;;;;;5.47;2.63;;;18.40;99.90;;;;;;4957210;28;20077;-87
2022/09/11 07:46:18;;;;;;;3.65;3.05;;;18.60;99.90;;;;;;4981451;28;20057;-87
2022/09/11 07:48:44;;;;;;;5.38;2.70;;;18.70;99.90;;;;;;4966127;28;20066;-88
2022/09/11 07:51:12;;;;;;;5.00;2.90;;;18.80;99.90;;;;;;4983997;28;20050;-87
2022/09/11 07:53:50;;;;;;;3.13;2.50;;;18.90;99.90;;;;;;4966125;28;20038;-88
2022/09/11 07:56:18;;;;;;;6.47;2.80;;;19.00;99.90;;;;;;4950051;28;20050;-87
2022/09/11 07:58:45;;;;;;;4.43;2.85;;;19.00;99.90;;;;;;4998499;28;20042;-87
2022/09/11 08:01:16;;;;;;;3.25;2.28;;;19.10;99.90;;;;;;4965680;28;20057;-87
2022/09/11 08:03:43;;;;;;;4.47;2.40;;;19.20;99.90;;;;;;4953509;28;20117;-88
2022/09/11 08:06:12;;;;;;;3.55;2.70;;;19.40;99.90;;;;;;4982156;28;20050;-86
2022/09/11 08:08:40;;;;;;;4.00;2.65;;;19.30;99.90;;;;;;4982336;28;20054;-87
2022/09/11 08:11:08;;;;;;;4.03;2.50;;;19.30;99.90;;;;;;4955048;28;20080;-87
2022/09/11 08:13:37;;;;;;;6.07;3.78;;;19.20;99.90;;;;;;4998977;28;20102;-86
2022/09/11 08:16:07;;;;;;;3.58;2.78;;;19.90;99.90;;;;;;4983783;28;20058;-88
2022/09/11 08:18:36;;;;;;;3.13;2.63;;;19.20;99.90;;;;;;4952357;28;20161;-87
2022/09/11 08:21:09;;;;;;;4.20;2.58;;;19.30;99.90;;;;;;4984393;28;20141;-87
2022/09/11 08:23:36;;;;;;;4.13;2.70;;;19.40;99.90;;;;;;4965334;28;20047;-88
2022/09/11 08:26:07;;;;;;;3.15;2.35;;;19.60;99.90;;;;;;4967557;28;20147;-88
2022/09/11 08:28:33;;;;;;;4.47;2.55;;;19.60;99.90;;;;;;4999206;28;20186;-87
2022/09/11 08:31:00;;;;;;;3.45;2.30;;;19.80;99.90;;;;;;4964536;28;20046;-87
2022/09/11 08:33:30;;;;;;;4.40;2.50;;;20.10;99.90;;;;;;4966755;28;20770;-86
2022/09/11 08:36:03;;;;;;;4.50;2.15;;;20.40;99.90;;;;;;5002254;28;20049;-87
2022/09/11 08:38:29;;;;;;;4.35;1.92;;;20.60;99.90;;;;;;4954650;28;20057;-88
2022/09/11 08:41:09;;;;;;;4.35;1.95;;;20.90;99.90;;;;;;4966112;28;20106;-87
2022/09/11 08:43:49;;;;;;;3.08;1.90;;;21.30;99.90;;;;;;4950318;28;20050;-87
2022/09/11 08:46:17;;;;;;;3.13;1.90;;;21.70;99.90;;;;;;4964371;28;20049;-88
2022/09/11 08:49:14;;;;;;;3.08;2.15;;;21.90;99.90;;;;;;4980539;28;20057;-88
2022/09/11 08:51:40;;;;;;;4.72;2.20;;;22.20;99.90;;;;;;4979526;28;20058;-87
2022/09/11 08:54:19;;;;;;;3.47;2.00;;;22.60;99.90;;;;;;4949032;28;20064;-88
2022/09/11 08:56:46;;;;;;;3.53;1.95;;;22.50;99.90;;;;;;4947974;28;20101;-87
2022/09/11 08:59:50;;;;;;;3.15;1.50;;;22.40;99.90;;;;;;4964814;28;20141;-86
2022/09/11 09:02:39;;;;;;;3.85;2.00;;;22.30;99.90;;;;;;4936411;28;20059;-85
2022/09/11 09:05:31;;;;;;;4.32;2.05;;;22.70;99.90;;;;;;4949207;28;20116;-87
2022/09/11 09:08:26;;;;;;;3.70;2.10;;;23.20;99.90;;;;;;4961126;28;20452;-86
2022/09/11 09:11:03;;;;;;;3.05;1.70;;;23.30;99.90;;;;;;4954607;28;20105;-87
2022/09/11 09:14:11;;;;;;;3.25;1.55;;;23.40;99.90;;;;;;4997924;28;20164;-86
2022/09/11 09:17:01;;;;;;;2.75;1.80;;;23.50;99.90;;;;;;4954369;28;20118;-87
2022/09/11 09:19:27;;;;;;;2.72;1.63;;;23.40;99.90;;;;;;4964847;28;20053;-87
2022/09/11 09:22:03;;;;;;;2.80;1.77;;;23.20;99.90;;;;;;4966010;28;20054;-86
2022/09/11 09:24:36;;;;;;;5.32;2.17;;;23.10;99.90;;;;;;4968098;28;20042;-87
2022/09/11 09:27:04;;;;;;;3.13;1.75;;;23.20;99.90;;;;;;4986675;28;20412;-86
2022/09/11 09:29:38;;;;;;;2.83;1.80;;;23.50;99.90;;;;;;4958107;28;20054;-87
2022/09/11 09:32:11;;;;;;;2.63;1.60;;;23.90;99.90;;;;;;4985180;28;20070;-86
2022/09/11 09:34:41;;;;;;;3.00;1.63;;;24.00;99.90;;;;;;4969647;28;20065;-87
2022/09/11 09:37:16;;;;;;;2.28;1.67;;;24.30;99.90;;;;;;4957076;28;20053;-87
2022/09/11 09:39:45;;;;;;;;;;;24.60;99.90;;;;;;4993147;28;20086;-87
2022/09/11 09:42:40;;;;;;;2.33;1.48;;;24.10;99.90;;;;;;4963040;28;19921;-87
2022/09/11 09:45:23;;;;;;;2.47;1.88;;;24.30;99.90;;;;;;4976117;28;20045;-86
2022/09/11 09:47:49;;;;;;;5.57;1.80;;;24.00;99.90;;;;;;4968212;28;20051;-88
2022/09/11 09:50:24;;;;;;;3.10;1.65;;;23.80;99.90;;;;;;4968534;28;20065;-88
2022/09/11 09:52:56;;;;;;;3.22;1.95;;;23.70;99.90;;;;;;4950517;28;20039;-87
2022/09/11 09:55:21;;;;;;;2.65;1.67;;;23.90;99.90;;;;;;4984298;28;21042;-87
2022/09/11 09:57:48;;;;;;;3.38;1.73;;;23.90;99.90;;;;;;4952679;28;20078;-87
2022/09/11 10:00:18;;;;;;;2.90;1.42;;;23.60;99.90;;;;;;4968041;28;20489;-86
2022/09/11 10:02:48;;;;;;;2.83;1.75;;;23.30;99.90;;;;;;4951130;28;20113;-86
2022/09/11 10:05:39;;;;;;;2.85;2.00;;;23.00;99.90;;;;;;4999685;28;20160;-86
2022/09/11 10:08:28;;;;;;;2.70;1.60;;;23.20;99.90;;;;;;4952327;28;20043;-86
2022/09/11 10:11:05;;;;;;;3.05;1.90;;;23.70;99.90;;;;;;4952639;28;20062;-87
2022/09/11 10:13:37;;;;;;;3.08;1.63;;;24.00;99.90;;;;;;4967964;28;20121;-87
2022/09/11 10:16:18;;;;;;;2.58;1.45;;;24.20;99.90;;;;;;4957801;28;20055;-87
2022/09/11 10:18:45;;;;;;;2.65;1.60;;;24.30;99.90;;;;;;4950814;28;20501;-87
2022/09/11 10:21:11;;;;;;;2.40;1.48;;;24.40;99.90;;;;;;4956801;28;20046;-88
2022/09/11 10:23:43;;;;;;;3.92;1.50;;;24.70;99.90;;;;;;4969875;28;20047;-87
2022/09/11 10:26:17;;;;;;;3.35;1.70;;;25.20;99.90;;;;;;4967087;28;20130;-88
2022/09/11 10:28:45;;;;;;;2.80;1.70;;;25.30;99.90;;;;;;4981840;28;20129;-87
2022/09/11 10:31:15;;;;;;;2.70;1.35;;;24.70;99.90;;;;;;4971620;28;20611;-87
2022/09/11 10:33:46;;;;;;;3.28;1.70;;;24.40;99.90;;;;;;4983111;28;20553;-87
2022/09/11 10:36:12;;;;;;;3.65;1.60;;;24.40;99.90;;;;;;4998697;28;20058;-87
2022/09/11 10:38:43;;;;;;;3.80;1.85;;;24.60;99.90;;;;;;4983908;28;20038;-87
2022/09/11 10:41:21;;;;;;;2.83;1.67;;;24.90;99.90;;;;;;4968960;28;20050;-88
2022/09/11 10:43:54;;;;;;;2.28;1.60;;;25.10;99.90;;;;;;4985716;28;20042;-87
2022/09/11 10:47:00;;;;;;;3.72;1.40;;;25.40;99.90;;;;;;4989888;28;20148;-87
2022/09/11 10:49:29;;;;;;;4.93;1.73;;;25.70;99.90;;;;;;4952162;28;20054;-88
2022/09/11 10:52:14;;;;;;;2.97;1.52;;;25.90;99.90;;;;;;4991823;28;20043;-87
2022/09/11 10:54:58;;;;;;;3.35;1.70;;;26.10;99.90;;;;;;4962741;28;20078;-88
2022/09/11 10:57:56;;;;;;;2.70;1.50;;;26.40;99.90;;;;;;4993489;28;20054;-87
2022/09/11 11:00:30;;;;;;;2.85;1.70;;;26.40;99.90;;;;;;4947892;28;20408;-87
2022/09/11 11:03:23;;;;;;;2.53;1.52;;;26.60;99.90;;;;;;4984545;28;20046;-87
2022/09/11 11:06:19;;;;;;;1.90;1.45;;;26.40;99.90;;;;;;4966265;28;20074;-87
2022/09/11 11:09:03;;;;;;;2.63;1.40;;;26.90;99.90;;;;;;4982549;28;20039;-86
2022/09/11 11:11:51;;;;;;;2.88;1.58;;;27.40;99.90;;;;;;4967293;28;20306;-88
2022/09/11 11:14:27;;;;;;;3.15;1.65;;;27.70;99.90;;;;;;4950234;28;20482;-87
2022/09/11 11:17:12;;;;;;;;;;;28.00;99.90;;;;;;4962279;28;20049;-87
2022/09/11 11:19:55;;;;;;;3.53;1.70;;;27.90;99.30;;;;;;4990856;28;20096;-85
2022/09/11 11:22:45;;;;;;;3.13;1.60;;;27.70;99.90;;;;;;4974992;28;20054;-86
2022/09/11 11:25:39;;;;;;;3.35;1.70;;;27.60;99.40;;;;;;4968570;28;20054;-88
2022/09/11 11:28:34;;;;;;;2.67;1.50;;;27.60;99.40;;;;;;4999507;28;20054;-88
2022/09/11 11:31:38;;;;;;;3.17;1.50;;;27.30;98.90;;;;;;4982505;28;20046;-88
2022/09/11 11:34:10;;;;;;;2.40;1.50;;;27.00;98.80;;;;;;4983843;28;20126;-87
2022/09/11 11:36:51;;;;;;;2.05;1.48;;;26.90;99.20;;;;;;4981055;28;20074;-86
2022/09/11 11:39:28;;;;;;;2.30;1.38;;;26.80;99.80;;;;;;4954021;28;20070;-87
2022/09/11 11:42:20;;;;;;;2.75;1.45;;;26.70;99.60;;;;;;4956906;28;20092;-87
2022/09/11 11:45:03;;;;;;;1.95;1.10;;;27.00;99.60;;;;;;4950402;28;20054;-87
2022/09/11 11:47:35;;;;;;;2.10;1.48;;;27.30;99.10;;;;;;4956132;28;20624;-87
2022/09/11 11:50:25;;;;;;;3.17;1.48;;;27.60;98.60;;;;;;4966413;28;20050;-86
2022/09/11 11:53:16;;;;;;;3.67;1.60;;;27.70;98.00;;;;;;4966709;28;20089;-87
2022/09/11 11:56:13;;;;;;;3.97;1.67;;;27.50;98.60;;;;;;4981041;28;20103;-87
2022/09/11 11:58:48;;;;;;;2.70;1.50;;;27.70;98.90;;;;;;4949822;28;20046;-86
2022/09/11 12:01:43;;;;;;;2.58;1.50;;;28.10;98.70;;;;;;4984767;28;20105;-86
2022/09/11 12:04:38;;;;;;;2.50;1.45;;;27.90;98.00;;;;;;4951993;28;20471;-86
2022/09/11 12:07:11;;;;;;;2.75;1.60;;;28.20;98.00;;;;;;4977648;28;20057;-85
2022/09/11 12:09:37;;;;;;;2.47;1.33;;;28.20;97.90;;;;;;4975929;28;20049;-87
2022/09/11 12:12:06;;;;;;;2.35;1.45;;;28.00;97.70;;;;;;4953540;28;20050;-87
2022/09/11 12:14:35;;;;;;;3.28;1.42;;;27.60;97.70;;;;;;4969047;28;20050;-87
2022/09/11 12:17:27;;;;;;;2.67;1.30;;;28.00;98.20;;;;;;4981156;28;20109;-87
2022/09/11 12:20:11;;;;;;;3.10;1.42;;;28.30;97.20;;;;;;4980600;28;20638;-87
2022/09/11 12:22:48;;;;;;;3.08;1.63;;;28.60;97.30;;;;;;4981437;28;20384;-88
2022/09/11 12:25:20;;;;;;;2.78;1.40;;;28.80;96.80;;;;;;4964715;28;20061;-87
2022/09/11 12:27:47;;;;;;;2.63;1.25;;;29.10;96.70;;;;;;4963999;28;20047;-87
2022/09/11 12:30:16;;;;;;;2.72;1.70;;;29.40;96.30;;;;;;4964451;28;20044;-87
2022/09/11 12:32:51;;;;;;;4.72;1.23;;;29.20;95.80;;;;;;4962875;28;20043;-87
2022/09/11 12:35:45;;;;;;;2.80;1.60;;;29.30;95.10;;;;;;4965226;28;20045;-86
2022/09/11 12:38:18;;;;;;;2.50;1.30;;;29.20;95.20;;;;;;4947976;28;20050;-87
2022/09/11 12:40:50;;;;;;;2.35;1.35;;;29.50;95.70;;;;;;4980765;28;20424;-87
2022/09/11 12:43:43;;;;;;;;;;;;;;;;;;;;;
2022/09/11 12:46:22;;;;;;;1.92;1.10;;;29.80;94.70;;;;;;4964755;28;20049;-88
2022/09/11 12:48:56;;;;;;;3.80;1.30;;;30.40;93.20;;;;;;4979792;28;20042;-88
2022/09/11 12:51:38;;;;;;;2.67;1.17;;;30.20;92.80;;;;;;4971149;28;20077;-87
2022/09/11 12:54:19;;;;;;;1.88;1.10;;;30.20;92.80;;;;;;4964410;28;20522;-87
2022/09/11 12:56:50;;;;;;;2.30;1.17;;;29.90;92.60;;;;;;4954750;28;20078;-87
2022/09/11 12:59:32;;;;;;;2.75;1.20;;;29.60;93.00;;;;;;4966591;28;20181;-87
2022/09/11 13:02:02;;;;;;;2.55;1.17;;;29.40;92.40;;;;;;4957735;28;20414;-86
2022/09/11 13:04:30;;;;;;;2.40;1.27;;;29.40;93.10;;;;;;4966344;28;20120;-87
2022/09/11 13:07:04;;;;;;;2.70;1.30;;;29.30;93.00;;;;;;4966431;28;20042;-86
2022/09/11 13:10:21;;;;;;;3.47;1.38;;;29.40;92.70;;;;;;4964775;28;20133;-87
2022/09/11 13:12:54;;;;;;;2.10;1.27;;;29.30;92.90;;;;;;4957200;28;20089;-87
2022/09/11 13:15:57;;;;;;;3.60;1.65;;;29.50;92.70;;;;;;4948100;28;20786;-87
2022/09/11 13:18:41;;;;;;;2.45;1.25;;;29.70;92.50;;;;;;4940188;28;21671;-88
2022/09/11 13:21:18;;;;;;;2.67;1.40;;;29.70;92.40;;;;;;4955060;28;20057;-91
2022/09/11 13:23:49;;;;;;;2.35;1.10;;;30.00;91.90;;;;;;4952446;28;20046;-89
2022/09/11 13:26:28;;;;;;;4.20;1.30;;;30.20;92.20;;;;;;4983411;28;20129;-90
2022/09/11 13:28:59;;;;;;;2.17;1.38;;;30.00;91.80;;;;;;4950408;28;20053;-88
2022/09/11 13:31:33;;;;;;;2.75;1.30;;;30.20;91.80;;;;;;4956060;28;20050;-87
2022/09/11 13:34:00;;;;;;;3.13;1.40;;;30.20;91.30;;;;;;4968176;28;20062;-90
2022/09/11 13:36:27;;;;;;;1.83;1.13;;;30.20;91.70;;;;;;4967723;28;20074;-87
2022/09/11 13:39:05;;;;;;;3.25;1.50;;;30.10;91.30;;;;;;4965721;28;20054;-88
2022/09/11 13:41:38;;;;;;;2.60;1.25;;;30.20;91.20;;;;;;4966494;28;20057;-86